Time;durP1;ratioP1;P1;durP2;ratioP2;P2;SDS_P1;SDS_P2;PMS_P1;PMS_P2;Temp;Humidity;BMP_temperature;BMP_pressure;BME280_temperature;BME280_humidity;BME280_pressure;Samples;Min_cycle;Max_cycle;Signal;HPM_P1;HPM_P2
2023/03/23 00:00:15;;;;;;;;;;;;;;;;;;4437702;32;19940;-75
2023/03/23 00:02:41;;;;;;;;;;;;;;;;;;4435884;32;19987;-75
2023/03/23 00:05:09;;;;;;;;;;;;;;;;;;4422070;32;19937;-74
2023/03/23 00:07:34;;;;;;;;;;;;;;;;;;4422182;32;19943;-75
2023/03/23 00:10:02;;;;;;;;;;;;;;;;;;4440518;32;19988;-75
2023/03/23 00:12:33;;;;;;;;;;;;;;;;;;4424909;32;19961;-75
2023/03/23 00:15:00;;;;;;;;;;;;;;;;;;4439199;32;19948;-75
2023/03/23 00:17:25;;;;;;;;;;;;;;;;;;4426319;32;20001;-75
2023/03/23 00:19:50;;;;;;;;;;;;;;;;;;4424786;32;20372;-75
2023/03/23 00:22:16;;;;;;;;;;;;;;;;;;4425481;32;19970;-75
2023/03/23 00:24:41;;;;;;;;;;;;;;;;;;4425672;32;19982;-75
2023/03/23 00:27:08;;;;;;;;;;;;;;;;;;4424767;32;20314;-76
2023/03/23 00:29:33;;;;;;;;;;;;;;;;;;4439582;32;19940;-75
2023/03/23 00:31:58;;;;;;;;;;;;;;;;;;4439128;32;19932;-76
2023/03/23 00:34:24;;;;;;;;;;;;;;;;;;4426218;32;19967;-75
2023/03/23 00:36:49;;;;;;;;;;;;;;;;;;4424861;32;19929;-75
2023/03/23 00:39:16;;;;;;;;;;;;;;;;;;4427234;32;20257;-75
2023/03/23 00:41:41;;;;;;;;;;;;;;;;;;4425476;32;19963;-75
2023/03/23 00:44:08;;;;;;;;;;;;;;;;;;4438584;32;19932;-74
2023/03/23 00:46:33;;;;;;;;;;;;;;;;;;4437555;32;19945;-74
2023/03/23 00:48:58;;;;;;;;;;;;;;;;;;4423078;32;19933;-74
2023/03/23 00:51:23;;;;;;;;;;;;;;;;;;4422954;32;19972;-74
2023/03/23 00:53:49;;;;;;;;;;;;;;;;;;4421921;32;19948;-74
2023/03/23 00:56:14;;;;;;;;;;;;;;;;;;4424658;32;19936;-75
2023/03/23 00:58:39;;;;;;;;;;;;;;;;;;4422820;32;19936;-75
2023/03/23 01:01:04;;;;;;;;;;;;;;;;;;4422784;32;19932;-76
2023/03/23 01:03:29;;;;;;;;;;;;;;;;;;4421577;32;19945;-75
2023/03/23 01:05:55;;;;;;;;;;;;;;;;;;4421685;32;19951;-75
2023/03/23 01:08:21;;;;;;;;;;;;;;;;;;4423255;32;20314;-75
2023/03/23 01:10:46;;;;;;;;;;;;;;;;;;4422718;32;19929;-74
2023/03/23 01:13:11;;;;;;;;;;;;;;;;;;4423348;32;20006;-74
2023/03/23 01:15:36;;;;;;;;;;;;;;;;;;4421491;32;19937;-75
2023/03/23 01:18:02;;;;;;;;;;;;;;;;;;4423808;32;19948;-75
2023/03/23 01:20:28;;;;;;;;;;;;;;;;;;4420555;32;19934;-75
2023/03/23 01:22:59;;;;;;;;;;;;;;;;;;4422677;32;19948;-75
2023/03/23 01:25:25;;;;;;;;;;;;;;;;;;4422499;32;19937;-75
2023/03/23 01:27:50;;;;;;;;;;;;;;;;;;4434702;32;19937;-76
2023/03/23 01:30:15;;;;;;;;;;;;;;;;;;4426782;32;19937;-76
2023/03/23 01:32:40;;;;;;;;;;;;;;;;;;4424504;32;20403;-75
2023/03/23 01:35:05;;;;;;;;;;;;;;;;;;4424715;32;19970;-75
2023/03/23 01:37:30;;;;;;;;;;;;;;;;;;4432571;32;19965;-76
2023/03/23 01:39:55;;;;;;;;;;;;;;;;;;4424412;32;20333;-74
2023/03/23 01:42:21;;;;;;;;;;;;;;;;;;4425900;32;19937;-73
2023/03/23 01:44:46;;;;;;;;;;;;;;;;;;4423877;32;19963;-74
2023/03/23 01:47:11;;;;;;;;;;;;;;;;;;4409422;32;20031;-75
2023/03/23 01:49:36;;;;;;;;;;;;;;;;;;4422925;32;19937;-75
2023/03/23 01:52:01;;;;;;;;;;;;;;;;;;4409694;32;19937;-75
2023/03/23 01:54:26;;;;;;;;;;;;;;;;;;4423607;32;19968;-75
2023/03/23 01:56:52;;;;;;;;;;;;;;;;;;4427659;32;19968;-74
2023/03/23 01:59:17;;;;;;;;;;;;;;;;;;4428966;32;19948;-75
2023/03/23 02:01:44;;;;;;;;;;;;;;;;;;4428448;32;19976;-76
2023/03/23 02:04:09;;;;;;;;;;;;;;;;;;4441733;32;19947;-76
2023/03/23 02:06:34;;;;;;;;;;;;;;;;;;4440648;32;19952;-76
2023/03/23 02:09:00;;;;;;;;;;;;;;;;;;4424397;32;19933;-76
2023/03/23 02:11:25;;;;;;;;;;;;;;;;;;4439761;32;19977;-74
2023/03/23 02:13:50;;;;;;;;;;;;;;;;;;4438723;32;19932;-75
2023/03/23 02:16:15;;;;;;;;;;;;;;;;;;4424233;32;19956;-74
2023/03/23 02:18:40;;;;;;;;;;;;;;;;;;4424698;32;20004;-75
2023/03/23 02:21:05;;;;;;;;;;;;;;;;;;4437518;32;19933;-75
2023/03/23 02:23:30;;;;;;;;;;;;;;;;;;4438632;32;19988;-74
2023/03/23 02:25:56;;;;;;;;;;;;;;;;;;4438272;32;19971;-75
2023/03/23 02:28:21;;;;;;;;;;;;;;;;;;4437099;32;20351;-75
2023/03/23 02:30:46;;;;;;;;;;;;;;;;;;4435212;32;19977;-76
2023/03/23 02:33:11;;;;;;;;;;;;;;;;;;4420368;32;19969;-75
2023/03/23 02:35:36;;;;;;;;;;;;;;;;;;4422407;32;19981;-74
2023/03/23 02:38:02;;;;;;;;;;;;;;;;;;4421350;32;19968;-76
2023/03/23 02:40:27;;;;;;;;;;;;;;;;;;4421606;32;19972;-75
2023/03/23 02:42:52;;;;;;;;;;;;;;;;;;4421844;32;19983;-75
2023/03/23 02:45:17;;;;;;;;;;;;;;;;;;4420821;32;19965;-74
2023/03/23 02:47:42;;;;;;;;;;;;;;;;;;4422497;32;19974;-74
2023/03/23 02:50:07;;;;;;;;;;;;;;;;;;4422670;32;19937;-75
2023/03/23 02:52:32;;;;;;;;;;;;;;;;;;4422559;32;20052;-75
2023/03/23 02:54:59;;;;;;;;;;;;;;;;;;4437484;32;19947;-76
2023/03/23 02:57:24;;;;;;;;;;;;;;;;;;4436454;32;19950;-76
2023/03/23 02:59:50;;;;;;;;;;;;;;;;;;4422417;32;19936;-76
2023/03/23 03:02:15;;;;;;;;;;;;;;;;;;4436398;32;19936;-75
2023/03/23 03:04:43;;;;;;;;;;;;;;;;;;4437436;32;19933;-76
2023/03/23 03:07:08;;;;;;;;;;;;;;;;;;4438396;32;19945;-75
2023/03/23 03:09:33;;;;;;;;;;;;;;;;;;4422856;32;19937;-75
2023/03/23 03:11:58;;;;;;;;;;;;;;;;;;4417774;32;20370;-75
2023/03/23 03:14:24;;;;;;;;;;;;;;;;;;4425121;32;19982;-75
2023/03/23 03:16:49;;;;;;;;;;;;;;;;;;4409568;32;19949;-74
2023/03/23 03:19:14;;;;;;;;;;;;;;;;;;4421485;32;20336;-75
2023/03/23 03:21:40;;;;;;;;;;;;;;;;;;4421265;32;19993;-74
2023/03/23 03:24:07;;;;;;;;;;;;;;;;;;4408053;32;20351;-74
2023/03/23 03:26:34;;;;;;;;;;;;;;;;;;4422485;32;19945;-75
2023/03/23 03:28:59;;;;;;;;;;;;;;;;;;4422334;32;19937;-75
2023/03/23 03:31:24;;;;;;;;;;;;;;;;;;4407237;32;19956;-74
2023/03/23 03:33:50;;;;;;;;;;;;;;;;;;4421742;32;19960;-76
2023/03/23 03:36:15;;;;;;;;;;;;;;;;;;4424645;32;19941;-75
2023/03/23 03:38:41;;;;;;;;;;;;;;;;;;4438998;32;19986;-75
2023/03/23 03:41:06;;;;;;;;;;;;;;;;;;4437735;32;19988;-77
2023/03/23 03:43:31;;;;;;;;;;;;;;;;;;4439037;32;19952;-75
2023/03/23 03:45:56;;;;;;;;;;;;;;;;;;4440125;32;19937;-74
2023/03/23 03:48:21;;;;;;;;;;;;;;;;;;4426214;32;20016;-75
2023/03/23 03:50:46;;;;;;;;;;;;;;;;;;4439234;32;19949;-77
2023/03/23 03:53:12;;;;;;;;;;;;;;;;;;4439631;32;19975;-76
2023/03/23 03:55:38;;;;;;;;;;;;;;;;;;4439337;32;19937;-76
2023/03/23 03:58:04;;;;;;;;;;;;;;;;;;4440611;32;20301;-76
2023/03/23 04:00:29;;;;;;;;;;;;;;;;;;4439432;32;19933;-74
2023/03/23 04:02:54;;;;;;;;;;;;;;;;;;4422789;32;19949;-74
2023/03/23 04:05:20;;;;;;;;;;;;;;;;;;4423776;32;20427;-74
2023/03/23 04:07:51;;;;;;;;;;;;;;;;;;4423809;32;19945;-74
2023/03/23 04:10:16;;;;;;;;;;;;;;;;;;4422479;32;19929;-75
2023/03/23 04:12:41;;;;;;;;;;;;;;;;;;4424213;32;19971;-75
2023/03/23 04:15:07;;;;;;;;;;;;;;;;;;4423855;32;20338;-76
2023/03/23 04:17:32;;;;;;;;;;;;;;;;;;4423420;32;19938;-75
2023/03/23 04:19:58;;;;;;;;;;;;;;;;;;4423429;32;19947;-76
2023/03/23 04:22:32;;;;;;;;;;;;;;;;;;4423813;32;19944;-74
2023/03/23 04:24:58;;;;;;;;;;;;;;;;;;4422751;32;19937;-76
2023/03/23 04:27:24;;;;;;;;;;;;;;;;;;4423208;32;19928;-75
2023/03/23 04:29:49;;;;;;;;;;;;;;;;;;4422752;32;19974;-77
2023/03/23 04:32:17;;;;;;;;;;;;;;;;;;4423590;32;19945;-74
2023/03/23 04:34:42;;;;;;;;;;;;;;;;;;4424022;32;19943;-75
2023/03/23 04:37:08;;;;;;;;;;;;;;;;;;4423611;32;19941;-74
2023/03/23 04:39:33;;;;;;;;;;;;;;;;;;4423305;32;19966;-76
2023/03/23 04:42:00;;;;;;;;;;;;;;;;;;4424077;32;19933;-77
2023/03/23 04:44:27;;;;;;;;;;;;;;;;;;4411010;32;19946;-77
2023/03/23 04:46:53;;;;;;;;;;;;;;;;;;4407182;32;19934;-77
2023/03/23 04:49:21;;;;;;;;;;;;;;;;;;4407289;32;20309;-79
2023/03/23 04:51:46;;;;;;;;;;;;;;;;;;4407589;32;19953;-77
2023/03/23 04:54:11;;;;;;;;;;;;;;;;;;4410160;32;19948;-75
2023/03/23 04:56:36;;;;;;;;;;;;;;;;;;4406588;32;19986;-72
2023/03/23 04:59:01;;;;;;;;;;;;;;;;;;4408019;32;20010;-73
2023/03/23 05:01:27;;;;;;;;;;;;;;;;;;4412514;32;19940;-73
2023/03/23 05:03:53;;;;;;;;;;;;;;;;;;4438419;32;20210;-74
2023/03/23 05:06:18;;;;;;;;;;;;;;;;;;4439518;32;19955;-74
2023/03/23 05:08:43;;;;;;;;;;;;;;;;;;4427584;32;19936;-75
2023/03/23 05:11:09;;;;;;;;;;;;;;;;;;4438691;32;19933;-75
2023/03/23 05:13:34;;;;;;;;;;;;;;;;;;4438789;32;19933;-76
2023/03/23 05:15:59;;;;;;;;;;;;;;;;;;4437999;32;20306;-77
2023/03/23 05:18:26;;;;;;;;;;;;;;;;;;4438439;32;19936;-77
2023/03/23 05:20:52;;;;;;;;;;;;;;;;;;4424579;32;19933;-77
2023/03/23 05:23:20;;;;;;;;;;;;;;;;;;4439493;32;20264;-77
2023/03/23 05:25:47;;;;;;;;;;;;;;;;;;4438694;32;19937;-75
2023/03/23 05:28:12;;;;;;;;;;;;;;;;;;4438835;32;20013;-76
2023/03/23 05:30:38;;;;;;;;;;;;;;;;;;4438874;32;19936;-76
2023/03/23 05:33:03;;;;;;;;;;;;;;;;;;4441205;32;19937;-76
2023/03/23 05:35:29;;;;;;;;;;;;;;;;;;4438436;32;19951;-75
2023/03/23 05:37:55;;;;;;;;;;;;;;;;;;4439300;32;19955;-77
2023/03/23 05:40:20;;;;;;;;;;;;;;;;;;4439379;32;19933;-75
2023/03/23 05:42:45;;;;;;;;;;;;;;;;;;4454099;32;19955;-75
2023/03/23 05:45:11;;;;;;;;;;;;;;;;;;4457488;32;19964;-75
2023/03/23 05:47:37;;;;;;;;;;;;;;;;;;4458006;32;19932;-75
2023/03/23 05:50:10;;;;;;;;;;;;;;;;;;4459652;32;19988;-77
2023/03/23 05:52:36;;;;;;;;;;;;;;;;;;4456915;32;19963;-78
2023/03/23 05:55:01;;;;;;;;;;;;;;;;;;4442361;32;20530;-77
2023/03/23 05:57:26;;;;;;;;;;;;;;;;;;4458087;32;19932;-75
2023/03/23 05:59:52;;;;;;;;;;;;;;;;;;4439549;32;19996;-74
2023/03/23 06:02:18;;;;;;;;;;;;;;;;;;4439413;32;19937;-75
2023/03/23 06:04:44;;;;;;;;;;;;;;;;;;4439221;32;19943;-77
2023/03/23 06:07:13;;;;;;;;;;;;;;;;;;4438435;32;19940;-76
2023/03/23 06:09:38;;;;;;;;;;;;;;;;;;4432379;32;20281;-75
2023/03/23 06:12:04;;;;;;;;;;;;;;;;;;4423617;32;19985;-76
2023/03/23 06:14:29;;;;;;;;;;;;;;;;;;4422335;32;19968;-77
2023/03/23 06:16:55;;;;;;;;;;;;;;;;;;4421264;32;19964;-77
2023/03/23 06:19:20;;;;;;;;;;;;;;;;;;4420594;32;19934;-77
2023/03/23 06:21:45;;;;;;;;;;;;;;;;;;4423666;32;19942;-78
2023/03/23 06:24:10;;;;;;;;;;;;;;;;;;4422949;32;19957;-78
2023/03/23 06:26:36;;;;;;;;;;;;;;;;;;4420920;32;19933;-78
2023/03/23 06:29:01;;;;;;;;;;;;;;;;;;4422153;32;19964;-78
2023/03/23 06:31:26;;;;;;;;;;;;;;;;;;4423162;32;19933;-77
2023/03/23 06:33:51;;;;;;;;;;;;;;;;;;4419987;32;20285;-76
2023/03/23 06:36:17;;;;;;;;;;;;;;;;;;4420028;32;19937;-77
2023/03/23 06:38:42;;;;;;;;;;;;;;;;;;4427515;32;19933;-77
2023/03/23 06:41:08;;;;;;;;;;;;;;;;;;4451574;32;20219;-74
2023/03/23 06:43:35;;;;;;;;;;;;;;;;;;4451888;32;19974;-74
2023/03/23 06:46:01;;;;;;;;;;;;;;;;;;4452194;32;19952;-76
2023/03/23 06:48:26;;;;;;;;;;;;;;;;;;4451935;32;19950;-75
2023/03/23 06:50:51;;;;;;;;;;;;;;;;;;4452301;32;20400;-75
2023/03/23 06:53:17;;;;;;;;;;;;;;;;;;4438625;32;19951;-75
2023/03/23 06:55:42;;;;;;;;;;;;;;;;;;4451860;32;19952;-73
2023/03/23 06:58:07;;;;;;;;;;;;;;;;;;4452163;32;20227;-75
2023/03/23 07:00:32;;;;;;;;;;;;;;;;;;4438479;32;19988;-75
2023/03/23 07:02:58;;;;;;;;;;;;;;;;;;4451385;32;19964;-75
2023/03/23 07:05:23;;;;;;;;;;;;;;;;;;4437411;32;19936;-73
2023/03/23 07:07:48;;;;;;;;;;;;;;;;;;4451455;32;19984;-75
2023/03/23 07:10:13;;;;;;;;;;;;;;;;;;4452495;32;20313;-75
2023/03/23 07:12:39;;;;;;;;;;;;;;;;;;4437139;32;19960;-75
2023/03/23 07:15:05;;;;;;;;;;;;;;;;;;4437330;32;19933;-75
2023/03/23 07:17:30;;;;;;;;;;;;;;;;;;4436640;32;19936;-74
2023/03/23 07:19:55;;;;;;;;;;;;;;;;;;4451305;32;19932;-75
2023/03/23 07:22:20;;;;;;;;;;;;;;;;;;4453185;32;19944;-75
2023/03/23 07:24:45;;;;;;;;;;;;;;;;;;4437948;32;19940;-74
2023/03/23 07:27:10;;;;;;;;;;;;;;;;;;4452482;32;19936;-74
2023/03/23 07:29:38;;;;;;;;;;;;;;;;;;4437631;32;19937;-75
2023/03/23 07:32:03;;;;;;;;;;;;;;;;;;4453127;32;19970;-74
2023/03/23 07:34:28;;;;;;;;;;;;;;;;;;4437192;32;19945;-74
2023/03/23 07:36:53;;;;;;;;;;;;;;;;;;4451856;32;19970;-74
2023/03/23 07:39:18;;;;;;;;;;;;;;;;;;4417351;32;19948;-75
2023/03/23 07:41:44;;;;;;;;;;;;;;;;;;4407845;32;19960;-74
2023/03/23 07:44:09;;;;;;;;;;;;;;;;;;4418223;32;19940;-74
2023/03/23 07:46:34;;;;;;;;;;;;;;;;;;4438106;32;20277;-74
2023/03/23 07:49:00;;;;;;;;;;;;;;;;;;4437658;32;19948;-74
2023/03/23 07:51:25;;;;;;;;;;;;;;;;;;4444254;32;19937;-73
2023/03/23 07:53:51;;;;;;;;;;;;;;;;;;4428369;32;19937;-74
2023/03/23 07:56:18;;;;;;;;;;;;;;;;;;4423225;32;19928;-75
2023/03/23 07:58:44;;;;;;;;;;;;;;;;;;4438599;32;19933;-77
2023/03/23 08:01:09;;;;;;;;;;;;;;;;;;4438996;32;19980;-77
2023/03/23 08:03:34;;;;;;;;;;;;;;;;;;4423100;32;19956;-76
2023/03/23 08:05:59;;;;;;;;;;;;;;;;;;4422869;32;19937;-76
2023/03/23 08:08:24;;;;;;;;;;;;;;;;;;4421975;32;19937;-76
2023/03/23 08:10:50;;;;;;;;;;;;;;;;;;4436323;32;19941;-76
2023/03/23 08:13:15;;;;;;;;;;;;;;;;;;4421921;32;20281;-75
2023/03/23 08:15:40;;;;;;;;;;;;;;;;;;4422266;32;19936;-75
2023/03/23 08:18:05;;;;;;;;;;;;;;;;;;4436464;32;19951;-75
2023/03/23 08:20:31;;;;;;;;;;;;;;;;;;4436774;32;19933;-78
2023/03/23 08:22:56;;;;;;;;;;;;;;;;;;4436723;32;19948;-76
2023/03/23 08:25:21;;;;;;;;;;;;;;;;;;4422600;32;19960;-77
2023/03/23 08:27:47;;;;;;;;;;;;;;;;;;4435874;32;19941;-76
2023/03/23 08:30:12;;;;;;;;;;;;;;;;;;4424714;32;19951;-77
2023/03/23 08:32:37;;;;;;;;;;;;;;;;;;4424672;32;19993;-76
2023/03/23 08:35:02;;;;;;;;;;;;;;;;;;4438780;32;20304;-77
2023/03/23 08:37:27;;;;;;;;;;;;;;;;;;4424435;32;19929;-77
2023/03/23 08:39:53;;;;;;;;;;;;;;;;;;4420442;32;19936;-74
2023/03/23 08:42:18;;;;;;;;;;;;;;;;;;4453560;32;19999;-74
2023/03/23 08:44:43;;;;;;;;;;;;;;;;;;4455091;32;19980;-75
2023/03/23 08:47:09;;;;;;;;;;;;;;;;;;4440748;32;19949;-76
2023/03/23 08:49:34;;;;;;;;;;;;;;;;;;4429858;32;20246;-75
2023/03/23 08:52:00;;;;;;;;;;;;;;;;;;4437168;32;20555;-75
2023/03/23 08:54:25;;;;;;;;;;;;;;;;;;4414496;32;19944;-76
2023/03/23 08:56:50;;;;;;;;;;;;;;;;;;4408934;32;19937;-75
2023/03/23 08:59:16;;;;;;;;;;;;;;;;;;4408717;32;19967;-76
2023/03/23 09:01:41;;;;;;;;;;;;;;;;;;4422579;32;19956;-77
2023/03/23 09:04:06;;;;;;;;;;;;;;;;;;4410757;32;20004;-76
2023/03/23 09:06:33;;;;;;;;;;;;;;;;;;4423219;32;20021;-77
2023/03/23 09:09:00;;;;;;;;;;;;;;;;;;4432749;32;19953;-77
2023/03/23 09:11:25;;;;;;;;;;;;;;;;;;4438998;32;19954;-75
2023/03/23 09:13:50;;;;;;;;;;;;;;;;;;4424458;32;19937;-76
2023/03/23 09:16:15;;;;;;;;;;;;;;;;;;4423848;32;19937;-76
2023/03/23 09:18:40;;;;;;;;;;;;;;;;;;4424169;32;19955;-76
2023/03/23 09:21:06;;;;;;;;;;;;;;;;;;4425656;32;19937;-76
2023/03/23 09:23:31;;;;;;;;;;;;;;;;;;4424372;32;20007;-77
2023/03/23 09:25:56;;;;;;;;;;;;;;;;;;4425232;32;20351;-76
2023/03/23 09:28:21;;;;;;;;;;;;;;;;;;4423840;32;20322;-76
2023/03/23 09:30:47;;;;;;;;;;;;;;;;;;4423794;32;19933;-75
2023/03/23 09:33:12;;;;;;;;;;;;;;;;;;4423562;32;20015;-77
2023/03/23 09:35:38;;;;;;;;;;;;;;;;;;4424001;32;19985;-77
2023/03/23 09:38:03;;;;;;;;;;;;;;;;;;4437552;32;19932;-77
2023/03/23 09:40:29;;;;;;;;;;;;;;;;;;4423560;32;19947;-77
2023/03/23 09:42:54;;;;;;;;;;;;;;;;;;4425279;32;19944;-77
2023/03/23 09:45:20;;;;;;;;;;;;;;;;;;4438474;32;19967;-76
2023/03/23 09:47:46;;;;;;;;;;;;;;;;;;4423878;32;20317;-77
2023/03/23 09:50:11;;;;;;;;;;;;;;;;;;4423927;32;19941;-77
2023/03/23 09:52:36;;;;;;;;;;;;;;;;;;4426626;32;19952;-75
2023/03/23 09:55:01;;;;;;;;;;;;;;;;;;4438487;32;19932;-75
2023/03/23 09:57:27;;;;;;;;;;;;;;;;;;4437937;32;19932;-76
2023/03/23 09:59:52;;;;;;;;;;;;;;;;;;4423956;32;20352;-75
2023/03/23 10:02:17;;;;;;;;;;;;;;;;;;4424593;32;19988;-77
2023/03/23 10:04:43;;;;;;;;;;;;;;;;;;4443220;32;19947;-76
2023/03/23 10:07:09;;;;;;;;;;;;;;;;;;4447575;32;19975;-76
2023/03/23 10:09:35;;;;;;;;;;;;;;;;;;4421824;32;19952;-75
2023/03/23 10:12:00;;;;;;;;;;;;;;;;;;4420339;32;20539;-76
2023/03/23 10:14:25;;;;;;;;;;;;;;;;;;4437566;32;19996;-76
2023/03/23 10:16:50;;;;;;;;;;;;;;;;;;4431436;32;19937;-75
2023/03/23 10:19:16;;;;;;;;;;;;;;;;;;4421465;32;19948;-76
2023/03/23 10:21:41;;;;;;;;;;;;;;;;;;4434383;32;19972;-77
2023/03/23 10:24:07;;;;;;;;;;;;;;;;;;4418027;32;19946;-78
2023/03/23 10:26:32;;;;;;;;;;;;;;;;;;4423544;32;19972;-74
2023/03/23 10:28:57;;;;;;;;;;;;;;;;;;4421879;32;19937;-76
2023/03/23 10:31:22;;;;;;;;;;;;;;;;;;4430979;32;19976;-77
2023/03/23 10:33:48;;;;;;;;;;;;;;;;;;4429337;32;19997;-76
2023/03/23 10:36:13;;;;;;;;;;;;;;;;;;4431476;32;20005;-77
2023/03/23 10:38:38;;;;;;;;;;;;;;;;;;4424367;32;19944;-75
2023/03/23 10:41:03;;;;;;;;;;;;;;;;;;4416628;32;19944;-75
2023/03/23 10:43:29;;;;;;;;;;;;;;;;;;4430438;32;19938;-76
2023/03/23 10:45:54;;;;;;;;;;;;;;;;;;4431396;32;20322;-76
2023/03/23 10:48:19;;;;;;;;;;;;;;;;;;4415664;32;19941;-78
2023/03/23 10:50:45;;;;;;;;;;;;;;;;;;4412619;32;19951;-78
2023/03/23 10:53:10;;;;;;;;;;;;;;;;;;4415482;32;20235;-77
2023/03/23 10:55:35;;;;;;;;;;;;;;;;;;4425988;32;20008;-77
2023/03/23 10:58:01;;;;;;;;;;;;;;;;;;4427443;32;19937;-78
2023/03/23 11:00:29;;;;;;;;;;;;;;;;;;4426609;32;19956;-77
2023/03/23 11:02:54;;;;;;;;;;;;;;;;;;4415506;32;19949;-76
2023/03/23 11:05:20;;;;;;;;;;;;;;;;;;4432583;32;20382;-76
2023/03/23 11:07:45;;;;;;;;;;;;;;;;;;4418720;32;19966;-77
2023/03/23 11:10:10;;;;;;;;;;;;;;;;;;4433181;32;20529;-77
2023/03/23 11:12:35;;;;;;;;;;;;;;;;;;4436125;32;19945;-77
2023/03/23 11:15:00;;;;;;;;;;;;;;;;;;4422277;32;19936;-78
2023/03/23 11:17:26;;;;;;;;;;;;;;;;;;4433461;32;19955;-75
2023/03/23 11:19:54;;;;;;;;;;;;;;;;;;4417351;32;19972;-78
2023/03/23 11:22:19;;;;;;;;;;;;;;;;;;4427440;32;19956;-77
2023/03/23 11:24:44;;;;;;;;;;;;;;;;;;4414823;32;19953;-76
2023/03/23 11:27:10;;;;;;;;;;;;;;;;;;4416274;32;19992;-77
2023/03/23 11:29:35;;;;;;;;;;;;;;;;;;4427042;32;19959;-78
2023/03/23 11:32:00;;;;;;;;;;;;;;;;;;4427036;32;19940;-75
2023/03/23 11:34:26;;;;;;;;;;;;;;;;;;4420286;32;19952;-76
2023/03/23 11:36:51;;;;;;;;;;;;;;;;;;4421930;32;20096;-75
2023/03/23 11:39:17;;;;;;;;;;;;;;;;;;4436818;32;19928;-77
2023/03/23 11:41:42;;;;;;;;;;;;;;;;;;4421753;32;19964;-76
2023/03/23 11:44:08;;;;;;;;;;;;;;;;;;4435873;32;19946;-76
2023/03/23 11:46:33;;;;;;;;;;;;;;;;;;4428322;32;20297;-77
2023/03/23 11:48:58;;;;;;;;;;;;;;;;;;4418752;32;19949;-76
2023/03/23 11:51:23;;;;;;;;;;;;;;;;;;4421654;32;19987;-77
2023/03/23 11:53:48;;;;;;;;;;;;;;;;;;4422488;32;19937;-74
2023/03/23 11:56:13;;;;;;;;;;;;;;;;;;4422500;32;19940;-77
2023/03/23 11:58:38;;;;;;;;;;;;;;;;;;4422752;32;19992;-77
2023/03/23 12:01:04;;;;;;;;;;;;;;;;;;4436149;32;19953;-76
2023/03/23 12:03:29;;;;;;;;;;;;;;;;;;4435788;32;20019;-75
2023/03/23 12:05:55;;;;;;;;;;;;;;;;;;4441551;32;19937;-76
2023/03/23 12:08:21;;;;;;;;;;;;;;;;;;4425157;32;19971;-77
2023/03/23 12:10:47;;;;;;;;;;;;;;;;;;4440124;32;19945;-78
2023/03/23 12:13:13;;;;;;;;;;;;;;;;;;4444579;32;19989;-78
2023/03/23 12:15:38;;;;;;;;;;;;;;;;;;4443652;32;19956;-76
2023/03/23 12:18:03;;;;;;;;;;;;;;;;;;4439989;32;19944;-78
2023/03/23 12:20:28;;;;;;;;;;;;;;;;;;4427069;32;19980;-78
2023/03/23 12:22:53;;;;;;;;;;;;;;;;;;4425065;32;19985;-78
2023/03/23 12:25:19;;;;;;;;;;;;;;;;;;4439388;32;19937;-77
2023/03/23 12:27:44;;;;;;;;;;;;;;;;;;4425971;32;20273;-78
2023/03/23 12:30:09;;;;;;;;;;;;;;;;;;4439005;32;19970;-78
2023/03/23 12:32:34;;;;;;;;;;;;;;;;;;4425623;32;19936;-79
2023/03/23 12:35:00;;;;;;;;;;;;;;;;;;4424677;32;19933;-77
2023/03/23 12:37:25;;;;;;;;;;;;;;;;;;4424610;32;19941;-78
2023/03/23 12:39:50;;;;;;;;;;;;;;;;;;4438450;32;19952;-76
2023/03/23 12:42:16;;;;;;;;;;;;;;;;;;4438733;32;19940;-76
2023/03/23 12:44:41;;;;;;;;;;;;;;;;;;4438612;32;19963;-78
2023/03/23 12:47:06;;;;;;;;;;;;;;;;;;4425322;32;19933;-76
2023/03/23 12:49:32;;;;;;;;;;;;;;;;;;4425757;32;19941;-78
2023/03/23 12:51:57;;;;;;;;;;;;;;;;;;4441903;32;19937;-79
2023/03/23 12:54:22;;;;;;;;;;;;;;;;;;4438997;32;19981;-79
2023/03/23 12:56:47;;;;;;;;;;;;;;;;;;4426358;32;19937;-78
2023/03/23 12:59:13;;;;;;;;;;;;;;;;;;4425523;32;19953;-79
2023/03/23 13:01:38;;;;;;;;;;;;;;;;;;4425423;32;19937;-79
2023/03/23 13:04:03;;;;;;;;;;;;;;;;;;4444677;32;19936;-75
2023/03/23 13:06:29;;;;;;;;;;;;;;;;;;4432242;32;19933;-78
2023/03/23 13:08:54;;;;;;;;;;;;;;;;;;4414184;32;19933;-75
2023/03/23 13:11:19;;;;;;;;;;;;;;;;;;4427581;32;19957;-78
2023/03/23 13:13:45;;;;;;;;;;;;;;;;;;4412617;32;19944;-73
2023/03/23 13:16:10;;;;;;;;;;;;;;;;;;4423743;32;19933;-77
2023/03/23 13:18:35;;;;;;;;;;;;;;;;;;4409678;32;19948;-78
2023/03/23 13:21:01;;;;;;;;;;;;;;;;;;4425070;32;19932;-77
2023/03/23 13:23:26;;;;;;;;;;;;;;;;;;4408732;32;19948;-78
2023/03/23 13:25:51;;;;;;;;;;;;;;;;;;4423695;32;20330;-77
2023/03/23 13:28:20;;;;;;;;;;;;;;;;;;4423346;32;19941;-78
2023/03/23 13:30:45;;;;;;;;;;;;;;;;;;4422231;32;19995;-75
2023/03/23 13:33:11;;;;;;;;;;;;;;;;;;4408644;32;19988;-78
2023/03/23 13:35:37;;;;;;;;;;;;;;;;;;4422328;32;19956;-78
2023/03/23 13:38:02;;;;;;;;;;;;;;;;;;4422882;32;19987;-79
2023/03/23 13:40:28;;;;;;;;;;;;;;;;;;4408654;32;20219;-78
2023/03/23 13:42:53;;;;;;;;;;;;;;;;;;4408042;32;19933;-78
2023/03/23 13:45:18;;;;;;;;;;;;;;;;;;4422182;32;19941;-79
2023/03/23 13:47:44;;;;;;;;;;;;;;;;;;4408758;32;19936;-78
2023/03/23 13:50:10;;;;;;;;;;;;;;;;;;4408282;32;19929;-79
2023/03/23 13:52:35;;;;;;;;;;;;;;;;;;4409089;32;19956;-77
2023/03/23 13:55:03;;;;;;;;;;;;;;;;;;4408271;32;19947;-80
2023/03/23 13:57:28;;;;;;;;;;;;;;;;;;4422477;32;19956;-79
2023/03/23 13:59:53;;;;;;;;;;;;;;;;;;4408452;32;19937;-76
2023/03/23 14:02:19;;;;;;;;;;;;;;;;;;4408267;32;19941;-78
2023/03/23 14:04:46;;;;;;;;;;;;;;;;;;4422055;32;19945;-79
2023/03/23 14:07:11;;;;;;;;;;;;;;;;;;4407333;32;19978;-79
2023/03/23 14:09:36;;;;;;;;;;;;;;;;;;4421423;32;20349;-80
2023/03/23 14:12:08;;;;;;;;;;;;;;;;;;4422920;32;20020;-78
2023/03/23 14:14:33;;;;;;;;;;;;;;;;;;4423696;32;19972;-79
2023/03/23 14:16:58;;;;;;;;;;;;;;;;;;4419452;32;20004;-79
2023/03/23 14:19:24;;;;;;;;;;;;;;;;;;4410026;32;20288;-80
2023/03/23 14:21:49;;;;;;;;;;;;;;;;;;4441556;32;19948;-80
2023/03/23 14:24:14;;;;;;;;;;;;;;;;;;4419110;32;19975;-79
2023/03/23 14:26:39;;;;;;;;;;;;;;;;;;4416178;32;19943;-78
2023/03/23 14:29:05;;;;;;;;;;;;;;;;;;4410904;32;19941;-80
2023/03/23 14:31:30;;;;;;;;;;;;;;;;;;4434799;32;19937;-80
2023/03/23 14:33:55;;;;;;;;;;;;;;;;;;4436508;32;19941;-79
2023/03/23 14:36:20;;;;;;;;;;;;;;;;;;4435789;32;19989;-78
2023/03/23 14:38:46;;;;;;;;;;;;;;;;;;4436738;32;19975;-79
2023/03/23 14:41:11;;;;;;;;;;;;;;;;;;4412447;32;19968;-76
2023/03/23 14:43:36;;;;;;;;;;;;;;;;;;4407578;32;19949;-78
2023/03/23 14:46:01;;;;;;;;;;;;;;;;;;4407937;32;20450;-79
2023/03/23 14:48:26;;;;;;;;;;;;;;;;;;4407654;32;20326;-80
2023/03/23 14:50:51;;;;;;;;;;;;;;;;;;4409450;32;19968;-79
2023/03/23 14:53:16;;;;;;;;;;;;;;;;;;4408271;32;19945;-82
2023/03/23 14:55:43;;;;;;;;;;;;;;;;;;4423045;32;19981;-80
2023/03/23 14:58:08;;;;;;;;;;;;;;;;;;4408096;32;19933;-80
2023/03/23 15:00:33;;;;;;;;;;;;;;;;;;4407404;32;19952;-81
2023/03/23 15:03:00;;;;;;;;;;;;;;;;;;4421146;32;19941;-78
2023/03/23 15:05:25;;;;;;;;;;;;;;;;;;4421181;32;19948;-80
2023/03/23 15:07:50;;;;;;;;;;;;;;;;;;4407349;32;19957;-81
2023/03/23 15:10:15;;;;;;;;;;;;;;;;;;4408436;32;20352;-80
2023/03/23 15:12:40;;;;;;;;;;;;;;;;;;4421595;32;19937;-80
2023/03/23 15:15:06;;;;;;;;;;;;;;;;;;4408678;32;19934;-77
2023/03/23 15:17:31;;;;;;;;;;;;;;;;;;4407165;32;19945;-79
2023/03/23 15:19:58;;;;;;;;;;;;;;;;;;4421162;32;19941;-80
2023/03/23 15:22:23;;;;;;;;;;;;;;;;;;4420863;32;20328;-80
2023/03/23 15:24:52;;;;;;;;;;;;;;;;;;4408080;32;19937;-79
2023/03/23 15:27:18;;;;;;;;;;;;;;;;;;4407132;32;20274;-79
2023/03/23 15:29:43;;;;;;;;;;;;;;;;;;4433541;32;20329;-79
2023/03/23 15:32:08;;;;;;;;;;;;;;;;;;4436844;32;19936;-79
2023/03/23 15:34:33;;;;;;;;;;;;;;;;;;4422538;32;19999;-79
2023/03/23 15:36:58;;;;;;;;;;;;;;;;;;4437331;32;19937;-78
2023/03/23 15:39:23;;;;;;;;;;;;;;;;;;4422661;32;20335;-79
2023/03/23 15:41:49;;;;;;;;;;;;;;;;;;4433835;32;20001;-79
2023/03/23 15:44:14;;;;;;;;;;;;;;;;;;4421759;32;20005;-79
2023/03/23 15:46:39;;;;;;;;;;;;;;;;;;4420490;32;19944;-79
2023/03/23 15:49:04;;;;;;;;;;;;;;;;;;4423975;32;19957;-80
2023/03/23 15:51:29;;;;;;;;;;;;;;;;;;4424713;32;19937;-78
2023/03/23 15:53:54;;;;;;;;;;;;;;;;;;4424448;32;19933;-79
2023/03/23 15:56:20;;;;;;;;;;;;;;;;;;4437857;32;19974;-80
2023/03/23 15:58:45;;;;;;;;;;;;;;;;;;4426629;32;19932;-78
2023/03/23 16:01:10;;;;;;;;;;;;;;;;;;4425636;32;19971;-79
2023/03/23 16:03:35;;;;;;;;;;;;;;;;;;4437375;32;20000;-80
2023/03/23 16:06:02;;;;;;;;;;;;;;;;;;4422645;32;19947;-80
2023/03/23 16:08:27;;;;;;;;;;;;;;;;;;4422586;32;19933;-79
2023/03/23 16:10:52;;;;;;;;;;;;;;;;;;4421858;32;20231;-79
2023/03/23 16:13:17;;;;;;;;;;;;;;;;;;4422701;32;19989;-78
2023/03/23 16:15:42;;;;;;;;;;;;;;;;;;4423138;32;20134;-78
2023/03/23 16:18:07;;;;;;;;;;;;;;;;;;4424642;32;19937;-78
2023/03/23 16:20:32;;;;;;;;;;;;;;;;;;4436762;32;19968;-79
2023/03/23 16:22:58;;;;;;;;;;;;;;;;;;4422530;32;19941;-79
2023/03/23 16:25:23;;;;;;;;;;;;;;;;;;4425950;32;19947;-77
2023/03/23 16:27:50;;;;;;;;;;;;;;;;;;4434913;32;19937;-79
2023/03/23 16:30:15;;;;;;;;;;;;;;;;;;4431978;32;19929;-79
2023/03/23 16:32:40;;;;;;;;;;;;;;;;;;4438277;32;19933;-79